Time;durP1;ratioP1;P1;durP2;ratioP2;P2;SDS_P1;SDS_P2;PMS_P1;PMS_P2;Temp;Humidity;BMP_temperature;BMP_pressure;BME280_temperature;BME280_humidity;BME280_pressure;Samples;Min_cycle;Max_cycle;Signal;HPM_P1;HPM_P2
2023/10/26 00:01:25;;;;;;;2.13;1.60;;;19.40;94.60;;;;;;5993492;22;45325;-58
2023/10/26 00:03:53;;;;;;;1.95;1.75;;;19.40;94.60;;;;;;5982647;22;45365;-57
2023/10/26 00:06:20;;;;;;;2.03;1.60;;;19.40;94.60;;;;;;5980975;22;46240;-58
2023/10/26 00:09:25;;;;;;;1.58;1.48;;;19.40;94.50;;;;;;5980462;22;45164;-58
2023/10/26 00:11:52;;;;;;;1.52;1.30;;;19.50;94.30;;;;;;5971063;22;45381;-58
2023/10/26 00:14:20;;;;;;;1.70;1.40;;;19.40;94.10;;;;;;5971787;22;45415;-58
2023/10/26 00:17:14;;;;;;;1.40;1.30;;;19.40;94.10;;;;;;5970517;22;45530;-58
2023/10/26 00:19:41;;;;;;;1.73;1.40;;;19.40;93.90;;;;;;5967554;22;44869;-58
2023/10/26 00:22:30;;;;;;;1.42;1.27;;;19.40;93.90;;;;;;5973805;22;45081;-58
2023/10/26 00:25:11;;;;;;;1.55;1.30;;;19.40;93.90;;;;;;5982812;22;45024;-58
2023/10/26 00:27:51;;;;;;;2.70;1.48;;;19.40;93.90;;;;;;5983329;22;45127;-58
2023/10/26 00:30:22;;;;;;;1.52;1.40;;;19.40;93.90;;;;;;5981383;22;45447;-58
2023/10/26 00:33:33;;;;;;;1.42;1.33;;;19.40;93.90;;;;;;5963940;22;45136;-58
2023/10/26 00:36:01;;;;;;;1.55;1.45;;;19.40;93.90;;;;;;5983500;22;45239;-58
2023/10/26 00:38:54;;;;;;;3.38;1.40;;;19.40;94.30;;;;;;5991645;22;47901;-58
2023/10/26 00:41:22;;;;;;;2.47;1.52;;;19.40;93.90;;;;;;5975775;22;45285;-59
2023/10/26 00:43:49;;;;;;;1.50;1.40;;;19.40;94.10;;;;;;5974352;22;45307;-59
2023/10/26 00:46:29;;;;;;;1.52;1.40;;;19.40;94.30;;;;;;5987929;22;45256;-59
2023/10/26 00:49:18;;;;;;;1.60;1.50;;;19.40;94.30;;;;;;5970719;22;45296;-58
2023/10/26 00:51:59;;;;;;;2.20;2.00;;;19.40;94.40;;;;;;5967104;22;45133;-59
2023/10/26 00:54:58;;;;;;;1.65;1.45;;;19.40;94.40;;;;;;5975582;22;45242;-59
2023/10/26 00:57:45;;;;;;;1.33;1.10;;;19.40;94.40;;;;;;5967752;22;45025;-59
2023/10/26 01:00:15;;;;;;;1.80;1.70;;;19.40;94.20;;;;;;5949725;22;46555;-58
2023/10/26 01:02:48;;;;;;;3.22;1.70;;;19.40;94.80;;;;;;5966721;22;45507;-58
2023/10/26 01:08:26;;;;;;;2.05;1.70;;;19.40;94.40;;;;;;5959082;22;45405;-58
2023/10/26 01:10:53;;;;;;;1.70;1.60;;;19.40;94.40;;;;;;5969099;22;46440;-58
2023/10/26 01:13:54;;;;;;;1.83;1.60;;;19.40;94.40;;;;;;5977926;22;45834;-59
2023/10/26 01:16:21;;;;;;;1.90;1.48;;;19.40;94.50;;;;;;5981156;22;45233;-58
2023/10/26 01:19:11;;;;;;;2.30;1.80;;;19.40;94.40;;;;;;5977433;22;44856;-59
2023/10/26 01:22:20;;;;;;;2.20;1.70;;;19.40;94.30;;;;;;5967542;22;46248;-58
2023/10/26 02:07:53;;;;;;;2.70;1.80;;;19.40;93.90;;;;;;5578577;22;12591453;-60
2023/10/26 02:10:36;;;;;;;1.95;1.73;;;19.40;93.90;;;;;;6090942;22;45175;-60
2023/10/26 02:13:04;;;;;;;2.28;1.48;;;19.30;93.90;;;;;;6107889;22;45124;-60
2023/10/26 02:15:30;;;;;;;1.90;1.60;;;19.40;93.90;;;;;;6118453;22;47652;-60
2023/10/26 02:21:20;;;;;;;1.17;1.08;;;19.40;93.90;;;;;;6071773;22;45103;-60
2023/10/26 02:24:14;;;;;;;1.83;1.60;;;19.40;93.90;;;;;;6120268;22;45717;-60
2023/10/26 02:26:54;;;;;;;3.72;1.52;;;19.40;93.90;;;;;;6099096;22;45587;-60
2023/10/26 02:29:22;;;;;;;2.38;1.20;;;19.30;93.90;;;;;;6100136;22;45232;-60
2023/10/26 02:31:50;;;;;;;1.98;1.40;;;19.30;93.30;;;;;;6127008;22;45278;-60
2023/10/26 02:34:47;;;;;;;1.48;1.13;;;19.40;93.40;;;;;;6105046;22;45669;-60
2023/10/26 02:37:41;;;;;;;1.80;1.38;;;19.40;93.20;;;;;;6117618;22;46283;-60
2023/10/26 02:40:11;;;;;;;2.15;1.10;;;19.30;93.00;;;;;;6118782;22;45146;-60
2023/10/26 02:42:41;;;;;;;1.77;1.20;;;19.40;93.00;;;;;;6101043;22;45199;-61
2023/10/26 02:45:18;;;;;;;2.08;1.15;;;19.30;92.80;;;;;;6086007;22;44945;-60
2023/10/26 02:47:48;;;;;;;1.90;1.35;;;19.30;93.00;;;;;;6103680;22;45383;-60
2023/10/26 02:50:20;;;;;;;2.63;1.27;;;19.30;92.80;;;;;;6097038;22;45054;-61
2023/10/26 02:53:03;;;;;;;1.65;1.10;;;19.30;92.60;;;;;;6077197;22;45347;-60
2023/10/26 02:59:24;;;;;;;1.60;1.25;;;19.30;92.70;;;;;;6063090;22;45535;-61
2023/10/26 03:02:00;;;;;;;1.85;1.42;;;19.30;92.60;;;;;;6092773;22;45193;-60
2023/10/26 03:04:54;;;;;;;1.42;1.13;;;19.30;93.00;;;;;;6082109;22;45188;-60
2023/10/26 03:10:02;;;;;;;1.17;0.98;;;19.30;93.30;;;;;;6088132;22;45268;-61
2023/10/26 03:12:29;;;;;;;2.33;1.33;;;19.40;93.20;;;;;;6091581;22;45281;-61
2023/10/26 03:15:29;;;;;;;1.30;1.10;;;19.40;93.30;;;;;;6102457;22;45446;-61
2023/10/26 03:18:31;;;;;;;1.05;0.93;;;19.40;93.30;;;;;;6103553;22;45037;-61
2023/10/26 03:21:06;;;;;;;2.05;1.55;;;19.40;93.20;;;;;;6097765;22;47300;-61
2023/10/26 03:24:01;;;;;;;1.00;0.88;;;19.40;93.20;;;;;;6110679;22;45209;-61
2023/10/26 03:26:49;;;;;;;1.50;1.08;;;19.40;93.20;;;;;;6112603;22;44834;-61
2023/10/26 03:29:45;;;;;;;1.23;1.13;;;19.40;93.10;;;;;;6118485;22;45207;-61
2023/10/26 03:32:40;;;;;;;1.20;1.10;;;19.40;93.00;;;;;;6114615;22;46629;-61
2023/10/26 03:35:33;;;;;;;1.73;1.00;;;19.30;93.20;;;;;;6116876;22;45031;-61
2023/10/26 03:38:34;;;;;;;1.52;1.30;;;19.40;93.00;;;;;;6091506;22;45250;-61
2023/10/26 03:41:18;;;;;;;1.20;1.10;;;19.40;92.80;;;;;;6118477;22;45317;-61
2023/10/26 03:44:07;;;;;;;1.20;1.10;;;19.40;92.50;;;;;;6107470;22;45236;-61
2023/10/26 03:46:57;;;;;;;1.40;1.20;;;19.40;92.40;;;;;;6107474;22;44812;-60
2023/10/26 03:49:24;;;;;;;1.10;1.00;;;19.40;92.20;;;;;;6106325;22;45501;-61
2023/10/26 03:51:52;;;;;;;1.30;1.10;;;19.40;92.30;;;;;;6092238;22;45317;-61
2023/10/26 03:54:20;;;;;;;1.48;1.30;;;19.40;92.10;;;;;;6106423;22;47440;-61
2023/10/26 03:57:21;;;;;;;1.67;1.30;;;19.30;92.20;;;;;;6113756;22;45362;-61
2023/10/26 04:00:23;;;;;;;1.38;1.27;;;19.30;91.90;;;;;;6108003;22;45339;-61
2023/10/26 04:02:49;;;;;;;1.33;1.00;;;19.40;92.10;;;;;;6084780;22;45317;-61
2023/10/26 04:05:44;;;;;;;1.40;1.30;;;19.40;91.90;;;;;;6104562;22;46326;-61
2023/10/26 04:08:39;;;;;;;1.98;1.30;;;19.30;92.30;;;;;;6096902;22;45211;-61
2023/10/26 04:11:09;;;;;;;1.40;1.13;;;19.40;92.70;;;;;;6082900;22;44881;-61
2023/10/26 04:13:50;;;;;;;1.25;1.13;;;19.40;92.80;;;;;;6098973;22;45247;-61
2023/10/26 04:16:22;;;;;;;1.45;1.10;;;19.40;92.90;;;;;;6084966;22;46689;-61
2023/10/26 04:18:50;;;;;;;1.23;1.10;;;19.40;92.80;;;;;;6126383;22;45371;-61
2023/10/26 04:21:54;;;;;;;1.85;1.10;;;19.40;93.10;;;;;;6118502;22;45153;-61
2023/10/26 04:24:23;;;;;;;1.40;1.17;;;19.40;93.20;;;;;;6095225;22;45018;-61
2023/10/26 04:27:04;;;;;;;1.35;1.20;;;19.30;92.90;;;;;;6117415;22;46239;-62
2023/10/26 04:29:32;;;;;;;1.30;1.02;;;19.30;93.00;;;;;;6103378;22;44950;-59
2023/10/26 04:31:59;;;;;;;1.50;1.20;;;19.30;92.50;;;;;;6127529;22;45207;-60
2023/10/26 04:37:36;;;;;;;1.55;1.17;;;19.30;92.10;;;;;;6098784;22;45849;-60
2023/10/26 04:40:24;;;;;;;1.33;1.17;;;19.30;92.30;;;;;;6140093;22;45270;-60
2023/10/26 04:43:07;;;;;;;1.20;1.10;;;19.30;92.30;;;;;;6109230;22;45183;-61
2023/10/26 04:45:53;;;;;;;1.13;1.00;;;19.30;92.20;;;;;;6134968;22;45309;-59
2023/10/26 04:48:19;;;;;;;1.25;1.10;;;19.30;92.20;;;;;;6097658;22;46059;-60
2023/10/26 04:54:12;;;;;;;1.13;0.95;;;19.30;92.00;;;;;;6075332;22;45506;-61
2023/10/26 04:56:42;;;;;;;1.02;1.02;;;19.30;92.00;;;;;;6092388;22;45380;-61
2023/10/26 04:59:18;;;;;;;1.10;1.00;;;19.30;92.10;;;;;;6114814;22;47415;-61
2023/10/26 05:02:22;;;;;;;1.45;1.13;;;19.30;91.90;;;;;;6114730;22;45106;-62
2023/10/26 05:05:24;;;;;;;1.38;1.10;;;19.30;92.10;;;;;;6095713;22;45235;-61
2023/10/26 05:07:53;;;;;;;0.98;0.93;;;19.30;91.80;;;;;;6166093;22;45292;-61
2023/10/26 05:10:21;;;;;;;1.10;0.90;;;19.30;92.00;;;;;;6108820;22;46388;-61
2023/10/26 05:13:12;;;;;;;6.60;0.90;;;19.30;92.00;;;;;;6142114;22;45053;-61
2023/10/26 05:15:57;;;;;;;1.02;0.90;;;19.30;92.10;;;;;;6122343;22;44847;-61
2023/10/26 05:18:43;;;;;;;1.05;0.80;;;19.30;92.20;;;;;;6120027;22;44777;-61
2023/10/26 05:21:10;;;;;;;1.20;1.05;;;19.30;92.20;;;;;;6117251;22;46228;-62
2023/10/26 05:24:05;;;;;;;1.27;1.00;;;19.30;92.10;;;;;;6106621;22;45170;-61
2023/10/26 05:26:37;;;;;;;1.55;1.08;;;19.30;92.00;;;;;;6124055;22;45254;-62
2023/10/26 05:29:57;;;;;;;1.48;1.00;;;19.30;91.90;;;;;;6122824;22;44782;-62
2023/10/26 05:32:40;;;;;;;1.40;0.90;;;19.30;91.90;;;;;;6145403;22;46593;-62
2023/10/26 05:35:31;;;;;;;1.10;1.00;;;19.30;92.00;;;;;;6118397;22;45008;-62
2023/10/26 05:38:40;;;;;;;1.02;0.90;;;19.30;91.70;;;;;;6122916;22;45326;-62
2023/10/26 05:41:06;;;;;;;1.50;1.00;;;19.30;92.00;;;;;;6119406;22;45011;-62
2023/10/26 05:44:13;;;;;;;1.50;1.30;;;19.30;91.70;;;;;;6102181;22;46570;-62
2023/10/26 05:46:41;;;;;;;1.35;1.13;;;19.30;91.80;;;;;;6093744;22;45223;-62
2023/10/26 05:49:30;;;;;;;1.20;1.10;;;19.30;91.70;;;;;;6118217;22;45146;-61
2023/10/26 05:52:12;;;;;;;1.67;1.23;;;19.30;91.70;;;;;;6103130;22;45263;-62
2023/10/26 05:55:16;;;;;;;1.05;0.98;;;19.30;91.40;;;;;;6099757;22;46475;-62
2023/10/26 05:57:57;;;;;;;1.52;1.15;;;19.30;91.30;;;;;;6091136;22;45319;-62
2023/10/26 06:00:25;;;;;;;1.35;1.10;;;19.30;91.10;;;;;;6096144;22;45342;-62
2023/10/26 06:03:11;;;;;;;1.27;0.90;;;19.30;91.10;;;;;;6120729;22;45210;-62
2023/10/26 06:09:15;;;;;;;1.30;1.00;;;19.30;90.90;;;;;;6051254;22;44989;-62
2023/10/26 06:12:22;;;;;;;1.48;1.00;;;19.30;90.90;;;;;;6162181;22;45129;-62
2023/10/26 06:15:24;;;;;;;0.95;0.85;;;19.30;90.70;;;;;;6127824;22;45354;-62
2023/10/26 06:18:27;;;;;;;1.70;1.20;;;19.30;90.70;;;;;;6113656;22;46791;-62
2023/10/26 06:21:15;;;;;;;1.52;1.10;;;19.30;90.70;;;;;;6140257;22;45125;-62
2023/10/26 06:24:01;;;;;;;1.10;1.00;;;19.30;90.50;;;;;;6095823;22;45266;-62
2023/10/26 06:26:30;;;;;;;1.63;1.40;;;19.30;90.50;;;;;;6120026;22;45235;-62
2023/10/26 06:29:28;;;;;;;1.75;1.33;;;19.30;90.50;;;;;;6099807;22;45954;-62
2023/10/26 06:32:06;;;;;;;1.70;1.08;;;19.30;90.50;;;;;;6133505;22;45187;-62
2023/10/26 06:34:38;;;;;;;1.42;1.30;;;19.30;90.70;;;;;;6090142;22;45229;-62
2023/10/26 06:37:37;;;;;;;1.42;1.30;;;19.30;90.60;;;;;;6123547;22;45288;-62
2023/10/26 06:40:06;;;;;;;3.30;1.40;;;19.30;90.60;;;;;;6113283;22;46471;-62
2023/10/26 06:42:33;;;;;;;2.25;1.50;;;19.30;90.70;;;;;;6114983;22;44816;-62
2023/10/26 06:45:03;;;;;;;1.92;1.38;;;19.30;90.70;;;;;;6173794;22;45015;-62
2023/10/26 06:47:53;;;;;;;1.10;1.00;;;19.30;90.60;;;;;;6110483;22;45229;-62
2023/10/26 06:53:04;;;;;;;1.42;1.23;;;19.30;90.60;;;;;;6102981;22;45187;-62
2023/10/26 06:55:33;;;;;;;1.80;1.50;;;19.30;90.60;;;;;;6117462;22;45130;-63
2023/10/26 06:58:01;;;;;;;1.40;1.30;;;19.30;90.50;;;;;;6113070;22;44864;-63
2023/10/26 07:01:05;;;;;;;1.60;1.50;;;19.30;90.40;;;;;;6110046;22;47305;-63
2023/10/26 07:03:50;;;;;;;1.73;1.50;;;19.30;90.30;;;;;;6087237;22;45277;-63
2023/10/26 07:09:20;;;;;;;1.83;1.25;;;19.30;90.10;;;;;;6107135;22;44885;-63
2023/10/26 07:12:32;;;;;;;1.30;1.20;;;19.30;89.40;;;;;;6146587;22;47302;-63
2023/10/26 07:15:26;;;;;;;1.52;1.40;;;19.30;89.30;;;;;;6115264;22;45534;-63
2023/10/26 07:17:53;;;;;;;1.42;1.33;;;19.30;89.00;;;;;;6092798;22;45076;-63
2023/10/26 07:20:48;;;;;;;1.95;1.38;;;19.30;88.90;;;;;;6130175;22;45126;-63
2023/10/26 07:23:53;;;;;;;3.45;1.48;;;19.30;88.80;;;;;;6126191;22;47208;-63
2023/10/26 07:26:21;;;;;;;1.38;1.27;;;19.30;88.40;;;;;;6112510;22;45454;-63
2023/10/26 07:29:27;;;;;;;2.17;1.52;;;19.30;88.50;;;;;;6106959;22;45236;-63
2023/10/26 07:31:54;;;;;;;1.90;1.38;;;19.30;88.60;;;;;;6109572;22;45133;-63
2023/10/26 07:34:23;;;;;;;1.98;1.50;;;19.30;88.70;;;;;;6092768;22;47098;-63
2023/10/26 07:36:51;;;;;;;1.40;1.30;;;19.30;88.70;;;;;;6133369;22;45212;-63
2023/10/26 07:39:29;;;;;;;1.30;1.20;;;19.30;88.90;;;;;;6103177;22;44803;-63
2023/10/26 07:41:57;;;;;;;3.60;1.58;;;19.30;89.10;;;;;;6109483;22;45209;-63
2023/10/26 07:44:24;;;;;;;2.92;1.42;;;19.30;89.20;;;;;;6125622;22;47338;-63
2023/10/26 07:47:08;;;;;;;1.60;1.40;;;19.30;89.20;;;;;;6119117;22;45117;-63
2023/10/26 07:49:41;;;;;;;1.95;1.52;;;19.30;89.00;;;;;;6100429;22;45020;-63
2023/10/26 07:52:10;;;;;;;3.30;1.67;;;19.30;89.10;;;;;;6138093;22;44950;-63
2023/10/26 07:58:09;;;;;;;2.20;1.48;;;19.40;90.00;;;;;;6088325;22;45004;-63
2023/10/26 08:00:53;;;;;;;2.28;1.60;;;19.30;89.10;;;;;;6108303;22;45504;-63
2023/10/26 08:07:11;;;;;;;1.63;1.52;;;19.30;89.00;;;;;;6039005;22;45016;-63
2023/10/26 08:09:39;;;;;;;2.78;1.63;;;19.30;88.90;;;;;;6144673;22;45018;-63
2023/10/26 08:12:20;;;;;;;4.32;1.45;;;19.40;88.80;;;;;;6116671;22;44990;-63
2023/10/26 08:15:09;;;;;;;1.45;1.35;;;19.30;88.80;;;;;;6131271;22;45090;-63
2023/10/26 08:17:36;;;;;;;1.52;1.40;;;19.30;88.50;;;;;;6110600;22;46247;-63
2023/10/26 08:20:07;;;;;;;2.20;1.52;;;19.30;88.20;;;;;;6106228;22;45268;-63
2023/10/26 08:22:43;;;;;;;1.25;1.10;;;19.40;88.30;;;;;;6127616;22;44979;-63
2023/10/26 08:25:28;;;;;;;2.35;1.67;;;19.40;88.20;;;;;;6113265;22;45366;-63
2023/10/26 08:27:58;;;;;;;1.83;1.60;;;19.40;88.50;;;;;;6114519;22;46181;-63
2023/10/26 08:31:00;;;;;;;1.80;1.42;;;19.40;88.50;;;;;;6142163;22;45361;-63
2023/10/26 08:33:39;;;;;;;3.03;1.77;;;19.40;88.40;;;;;;6114998;22;45174;-63
2023/10/26 08:36:06;;;;;;;2.25;1.45;;;19.40;88.40;;;;;;6099932;22;45080;-63
2023/10/26 08:41:58;;;;;;;1.77;1.60;;;19.30;88.50;;;;;;6071477;22;45096;-63
2023/10/26 08:44:43;;;;;;;3.50;1.90;;;19.30;88.70;;;;;;6106029;22;45051;-64
2023/10/26 08:47:30;;;;;;;3.88;1.70;;;19.40;88.90;;;;;;6120763;22;45284;-64
2023/10/26 08:50:07;;;;;;;1.95;1.75;;;19.40;89.10;;;;;;6124399;22;47193;-63
2023/10/26 08:52:56;;;;;;;2.47;2.00;;;19.40;89.00;;;;;;6082800;22;45455;-64
2023/10/26 08:55:47;;;;;;;2.25;1.80;;;19.30;88.90;;;;;;6105446;22;45360;-64
2023/10/26 08:58:14;;;;;;;2.42;1.70;;;19.30;89.00;;;;;;6131434;22;45092;-64
2023/10/26 09:01:11;;;;;;;3.05;2.00;;;19.30;89.00;;;;;;6115749;22;45770;-64
2023/10/26 09:07:07;;;;;;;2.30;1.92;;;19.40;89.10;;;;;;6091878;22;45226;-63
2023/10/26 09:10:17;;;;;;;3.28;2.20;;;19.40;89.30;;;;;;6096345;22;45130;-63
2023/10/26 09:16:09;;;;;;;2.97;2.00;;;19.40;89.30;;;;;;6073062;22;45220;-64
2023/10/26 09:19:14;;;;;;;2.55;1.95;;;19.40;89.30;;;;;;6124186;22;44999;-63
2023/10/26 09:21:56;;;;;;;4.75;2.20;;;19.40;89.00;;;;;;6138842;22;45054;-63
2023/10/26 09:24:30;;;;;;;2.50;2.15;;;19.40;88.90;;;;;;6107794;22;45991;-63
2023/10/26 09:27:19;;;;;;;3.40;1.90;;;19.40;89.00;;;;;;6114127;22;44923;-64
2023/10/26 09:29:47;;;;;;;2.28;1.92;;;19.40;89.00;;;;;;6115705;22;45255;-64
2023/10/26 09:32:51;;;;;;;2.22;2.03;;;19.40;88.80;;;;;;6111419;22;45435;-64
2023/10/26 09:35:42;;;;;;;3.20;2.55;;;19.40;88.30;;;;;;6131301;22;46524;-64
2023/10/26 09:38:09;;;;;;;3.30;2.83;;;19.30;86.50;;;;;;6083237;22;45036;-64
2023/10/26 09:40:36;;;;;;;3.92;2.45;;;19.30;85.10;;;;;;6129474;22;45297;-64
2023/10/26 09:43:03;;;;;;;3.67;2.33;;;19.30;83.80;;;;;;6092058;22;45172;-64
2023/10/26 09:45:43;;;;;;;3.47;2.50;;;19.30;83.20;;;;;;6131350;22;47074;-60
2023/10/26 09:48:20;;;;;;;3.53;2.80;;;19.30;81.70;;;;;;6114275;22;45199;-61
2023/10/26 09:50:49;;;;;;;3.63;2.90;;;19.30;81.90;;;;;;6102071;22;45068;-61
2023/10/26 09:53:18;;;;;;;3.13;2.65;;;19.20;81.40;;;;;;6096416;22;45224;-61
2023/10/26 09:55:56;;;;;;;4.22;3.00;;;19.30;81.90;;;;;;6128692;22;46226;-60
2023/10/26 09:58:47;;;;;;;3.10;2.65;;;19.30;82.60;;;;;;6130114;22;45246;-61
2023/10/26 10:01:50;;;;;;;2.80;2.50;;;19.30;83.00;;;;;;6113598;22;45352;-62
2023/10/26 10:04:42;;;;;;;4.57;2.60;;;19.30;83.40;;;;;;6122500;22;45180;-62
2023/10/26 10:27:38;;;;;;;3.13;2.00;;;19.40;85.30;;;;;;6012480;22;45043;-63
2023/10/26 10:30:29;;;;;;;1.80;1.55;;;19.40;85.30;;;;;;6032632;22;45149;-63
2023/10/26 10:33:22;;;;;;;2.35;1.55;;;19.40;85.20;;;;;;5998255;22;46401;-63
2023/10/26 10:36:10;;;;;;;2.28;1.67;;;19.40;85.30;;;;;;6024034;22;45273;-63
2023/10/26 10:39:07;;;;;;;2.40;1.83;;;19.40;85.30;;;;;;5991773;22;45111;-63
2023/10/26 10:41:50;;;;;;;4.28;1.50;;;19.40;85.20;;;;;;6019488;22;45167;-63
2023/10/26 10:44:17;;;;;;;2.83;1.70;;;19.40;85.10;;;;;;5981682;22;47241;-60
2023/10/26 10:46:50;;;;;;;1.98;1.58;;;19.40;85.20;;;;;;5970484;22;45458;-60
2023/10/26 10:49:39;;;;;;;2.67;1.55;;;19.40;85.20;;;;;;6001560;22;45296;-61
2023/10/26 10:52:41;;;;;;;2.67;1.83;;;19.40;85.20;;;;;;6001225;22;45270;-62
2023/10/26 10:55:11;;;;;;;2.75;1.58;;;19.40;85.30;;;;;;5990635;22;46301;-60
2023/10/26 11:01:22;;;;;;;1.60;1.38;;;19.40;85.40;;;;;;5992887;22;45127;-62
2023/10/26 11:03:49;;;;;;;1.90;1.55;;;19.40;85.50;;;;;;5991530;22;45206;-62
2023/10/26 11:06:17;;;;;;;2.15;1.50;;;19.40;85.50;;;;;;6012202;22;47381;-60
2023/10/26 11:08:58;;;;;;;2.08;1.55;;;19.40;85.40;;;;;;5997679;22;44984;-61
2023/10/26 11:11:39;;;;;;;2.15;1.40;;;19.40;85.60;;;;;;5981835;22;45297;-61
2023/10/26 11:14:22;;;;;;;2.10;1.58;;;19.40;85.40;;;;;;6018135;22;45197;-62
2023/10/26 11:19:53;;;;;;;4.20;1.38;;;19.50;85.60;;;;;;6001117;22;45314;-61
2023/10/26 11:22:22;;;;;;;1.80;1.20;;;19.50;85.50;;;;;;5973465;22;44997;-62
2023/10/26 11:24:54;;;;;;;2.30;1.30;;;19.50;85.40;;;;;;6002070;22;45172;-62
2023/10/26 11:27:48;;;;;;;1.77;1.40;;;19.50;85.50;;;;;;5991277;22;46248;-62
2023/10/26 11:30:28;;;;;;;2.28;1.30;;;19.50;85.50;;;;;;6004869;22;44848;-62
2023/10/26 11:33:29;;;;;;;2.10;1.13;;;19.50;85.30;;;;;;5999005;22;45047;-62
2023/10/26 11:35:57;;;;;;;1.73;1.30;;;19.50;85.20;;;;;;5976982;22;45326;-62
2023/10/26 11:38:26;;;;;;;1.42;1.08;;;19.40;85.20;;;;;;5974058;22;46301;-62
2023/10/26 11:41:22;;;;;;;1.30;1.05;;;19.50;85.20;;;;;;5973993;22;45213;-62
2023/10/26 11:43:57;;;;;;;2.13;1.13;;;19.50;85.20;;;;;;5991733;22;44593;-62
2023/10/26 11:46:32;;;;;;;1.25;1.05;;;19.40;85.00;;;;;;5969547;22;45259;-62
2023/10/26 11:49:18;;;;;;;1.35;1.15;;;19.40;85.00;;;;;;5978338;22;45122;-62
2023/10/26 11:55:20;;;;;;;1.80;1.17;;;19.40;85.00;;;;;;5950994;22;45295;-62
2023/10/26 11:57:50;;;;;;;1.40;1.10;;;19.40;85.00;;;;;;5981659;22;45382;-62
2023/10/26 12:00:20;;;;;;;1.10;0.90;;;19.40;85.10;;;;;;5988001;22;45372;-62
2023/10/26 12:02:47;;;;;;;1.75;0.95;;;19.40;85.10;;;;;;5984496;22;44969;-62
2023/10/26 12:05:42;;;;;;;1.13;1.02;;;19.40;85.00;;;;;;5995595;22;45216;-62
2023/10/26 12:08:12;;;;;;;1.58;1.05;;;19.40;85.20;;;;;;5977700;22;45190;-62
2023/10/26 12:11:00;;;;;;;2.67;1.15;;;19.50;85.30;;;;;;5976176;22;46457;-62
2023/10/26 12:13:26;;;;;;;2.08;1.00;;;19.50;86.30;;;;;;5989450;22;45253;-62
2023/10/26 12:16:10;;;;;;;1.77;1.20;;;19.40;85.10;;;;;;6006906;22;45293;-62
2023/10/26 12:18:45;;;;;;;1.30;1.17;;;19.50;85.10;;;;;;6008191;22;45341;-62
2023/10/26 12:21:18;;;;;;;1.42;0.95;;;19.50;85.20;;;;;;5978929;22;46091;-62
2023/10/26 12:27:37;;;;;;;1.20;0.85;;;19.50;85.10;;;;;;5978806;22;45344;-62
2023/10/26 12:30:19;;;;;;;0.95;0.80;;;19.50;85.00;;;;;;6032268;22;45035;-62
2023/10/26 12:32:48;;;;;;;2.13;0.90;;;19.50;85.00;;;;;;5985782;22;46196;-62
2023/10/26 12:35:15;;;;;;;1.33;0.80;;;19.50;85.10;;;;;;5995107;22;45291;-62
2023/10/26 12:38:03;;;;;;;1.25;0.90;;;19.40;85.00;;;;;;5992438;22;45306;-62
2023/10/26 12:40:47;;;;;;;1.48;0.80;;;19.50;85.00;;;;;;5985087;22;45115;-62
2023/10/26 12:43:14;;;;;;;1.50;0.70;;;19.50;85.00;;;;;;5988288;22;46688;-62
2023/10/26 12:45:42;;;;;;;1.50;0.70;;;19.50;85.00;;;;;;5990768;22;45046;-62
2023/10/26 12:48:12;;;;;;;1.17;0.95;;;19.50;85.20;;;;;;6003271;22;45126;-62
2023/10/26 12:50:39;;;;;;;1.08;0.90;;;19.50;85.20;;;;;;5981698;22;45210;-62
2023/10/26 12:53:07;;;;;;;1.33;0.63;;;19.50;85.10;;;;;;5989532;22;47235;-62
2023/10/26 12:56:03;;;;;;;0.90;0.80;;;19.40;84.90;;;;;;5997286;22;44961;-62
2023/10/26 12:58:32;;;;;;;1.00;0.90;;;19.50;85.00;;;;;;5991390;22;45135;-62
2023/10/26 13:01:13;;;;;;;1.00;0.68;;;19.50;84.90;;;;;;5957977;22;45255;-62
2023/10/26 13:03:52;;;;;;;1.50;0.80;;;19.50;85.00;;;;;;5980805;22;45422;-62
2023/10/26 13:06:20;;;;;;;1.55;1.15;;;19.50;85.00;;;;;;5975704;22;44959;-62
2023/10/26 13:11:46;;;;;;;0.70;0.70;;;19.40;84.90;;;;;;5978150;22;45239;-62
2023/10/26 13:14:33;;;;;;;1.25;0.80;;;19.40;85.10;;;;;;6020332;22;46638;-62
2023/10/26 13:17:21;;;;;;;0.98;0.68;;;19.50;85.10;;;;;;5999131;22;45344;-62
2023/10/26 13:19:49;;;;;;;1.48;1.20;;;19.50;85.00;;;;;;5982362;22;45205;-62
2023/10/26 13:22:36;;;;;;;1.20;1.02;;;19.50;85.00;;;;;;5983598;22;45263;-62
2023/10/26 13:25:16;;;;;;;1.05;0.95;;;19.50;85.00;;;;;;5967587;22;47137;-62
2023/10/26 13:28:08;;;;;;;1.75;1.10;;;19.40;84.90;;;;;;6000409;22;45140;-62
2023/10/26 13:31:10;;;;;;;1.23;1.00;;;19.40;84.90;;;;;;6055452;22;44998;-62
2023/10/26 13:33:38;;;;;;;1.30;0.88;;;19.50;85.00;;;;;;5984866;22;45331;-62
2023/10/26 13:36:58;;;;;;;1.70;1.08;;;19.50;85.00;;;;;;5976222;22;46307;-62
2023/10/26 13:39:31;;;;;;;1.30;0.98;;;19.50;85.00;;;;;;6005803;22;45224;-62
2023/10/26 13:41:58;;;;;;;1.30;1.00;;;19.50;84.90;;;;;;5991017;22;44834;-62
2023/10/26 13:44:46;;;;;;;1.52;1.10;;;19.50;84.90;;;;;;5980857;22;45301;-62
2023/10/26 13:47:28;;;;;;;1.30;1.08;;;19.50;84.90;;;;;;5993392;22;46101;-62
2023/10/26 13:49:56;;;;;;;2.10;1.10;;;19.40;84.90;;;;;;6013077;22;45071;-62
2023/10/26 13:53:14;;;;;;;1.77;1.30;;;19.50;84.90;;;;;;5999000;22;45059;-62
2023/10/26 13:56:09;;;;;;;1.00;0.90;;;19.50;84.80;;;;;;5976768;22;45017;-62
2023/10/26 13:59:06;;;;;;;1.38;1.08;;;19.50;84.90;;;;;;5975009;22;46443;-62
2023/10/26 14:01:52;;;;;;;1.55;0.90;;;19.50;84.90;;;;;;6025842;22;45076;-62
2023/10/26 14:04:21;;;;;;;1.42;1.00;;;19.50;85.00;;;;;;5996997;22;45188;-62
2023/10/26 14:07:23;;;;;;;3.33;1.20;;;19.50;85.00;;;;;;5968286;22;45178;-62
2023/10/26 14:09:52;;;;;;;1.10;1.00;;;19.50;85.00;;;;;;5992852;22;46298;-62
2023/10/26 14:12:58;;;;;;;1.75;1.25;;;19.40;85.20;;;;;;5996837;22;44931;-62
2023/10/26 14:15:37;;;;;;;1.42;1.02;;;19.40;84.90;;;;;;5981208;22;45297;-62
2023/10/26 14:18:29;;;;;;;1.70;1.30;;;19.40;85.00;;;;;;6004656;22;44980;-62
2023/10/26 14:21:17;;;;;;;1.27;1.13;;;19.50;85.20;;;;;;6007267;22;47310;-62
2023/10/26 14:24:21;;;;;;;2.35;1.30;;;19.40;85.10;;;;;;6014480;22;45243;-62
2023/10/26 14:26:49;;;;;;;2.42;1.20;;;19.40;85.10;;;;;;5979116;22;45175;-62
2023/10/26 14:29:42;;;;;;;1.30;1.00;;;19.40;85.10;;;;;;5989736;22;45136;-62
2023/10/26 14:32:28;;;;;;;2.42;1.33;;;19.40;85.00;;;;;;5992666;22;47266;-62
2023/10/26 14:35:28;;;;;;;2.35;1.05;;;19.50;85.00;;;;;;5990727;22;45019;-62
2023/10/26 14:38:24;;;;;;;1.20;0.93;;;19.40;84.90;;;;;;5981053;22;45169;-62
2023/10/26 14:41:42;;;;;;;1.40;0.90;;;19.50;85.00;;;;;;6009352;22;45363;-61
2023/10/26 14:44:14;;;;;;;1.10;1.00;;;19.50;84.80;;;;;;6008362;22;46041;-62
2023/10/26 14:46:52;;;;;;;2.03;1.20;;;19.50;84.90;;;;;;5997996;22;45084;-62
2023/10/26 14:49:49;;;;;;;2.30;1.30;;;19.50;84.90;;;;;;6007092;22;45142;-62
2023/10/26 14:52:41;;;;;;;1.45;0.95;;;19.40;84.70;;;;;;5998081;22;45077;-62
2023/10/26 14:55:39;;;;;;;0.82;0.80;;;19.50;84.70;;;;;;6008589;22;45235;-62
2023/10/26 14:58:06;;;;;;;1.30;1.13;;;19.50;84.60;;;;;;5988129;22;44816;-62
2023/10/26 15:00:47;;;;;;;1.20;0.80;;;19.50;84.60;;;;;;5982541;22;45597;-62
2023/10/26 15:03:43;;;;;;;1.42;0.80;;;19.50;84.40;;;;;;6020203;22;45172;-62
2023/10/26 15:06:10;;;;;;;0.85;0.82;;;19.50;84.50;;;;;;5997734;22;46277;-62
2023/10/26 15:08:55;;;;;;;1.52;0.80;;;19.50;84.50;;;;;;5989373;22;45320;-62
2023/10/26 15:14:26;;;;;;;1.23;0.80;;;19.40;84.70;;;;;;5992561;22;45285;-62
2023/10/26 15:16:54;;;;;;;1.38;0.85;;;19.50;84.90;;;;;;6011361;22;46371;-62
2023/10/26 15:19:21;;;;;;;1.23;0.80;;;19.50;84.90;;;;;;5994621;22;45235;-62
2023/10/26 15:22:07;;;;;;;0.93;0.80;;;19.50;84.90;;;;;;5978086;22;44964;-63
2023/10/26 15:24:47;;;;;;;2.40;0.90;;;19.50;84.90;;;;;;5999290;22;45137;-62
2023/10/26 15:28:17;;;;;;;1.17;0.80;;;19.50;85.00;;;;;;6014339;22;46340;-63
2023/10/26 15:31:08;;;;;;;2.08;1.08;;;19.50;85.00;;;;;;5983998;22;45225;-60
2023/10/26 15:34:08;;;;;;;1.73;1.00;;;19.50;85.10;;;;;;6008546;22;45071;-60
2023/10/26 15:36:36;;;;;;;2.05;1.00;;;19.50;85.20;;;;;;5994274;22;45170;-60
2023/10/26 15:39:04;;;;;;;1.33;1.00;;;19.50;85.20;;;;;;5977929;22;47278;-61
2023/10/26 15:41:38;;;;;;;0.63;0.63;;;19.50;85.20;;;;;;5971334;22;45975;-62
2023/10/26 15:44:20;;;;;;;1.00;0.90;;;19.50;85.30;;;;;;5969921;22;45308;-61
2023/10/26 15:46:47;;;;;;;1.38;0.88;;;19.50;85.40;;;;;;6004155;22;45117;-61
2023/10/26 15:49:30;;;;;;;0.98;0.73;;;19.50;85.40;;;;;;5987434;22;47684;-61
2023/10/26 15:51:57;;;;;;;0.73;0.60;;;19.50;85.50;;;;;;5987251;22;44972;-61
2023/10/26 15:54:34;;;;;;;0.82;0.70;;;19.50;85.50;;;;;;5997248;22;45279;-61
2023/10/26 15:57:26;;;;;;;2.58;1.10;;;19.50;85.60;;;;;;6000653;22;45290;-60
2023/10/26 15:59:55;;;;;;;1.20;0.80;;;19.50;85.60;;;;;;5981670;22;46510;-59
2023/10/26 16:02:37;;;;;;;1.00;0.90;;;19.50;85.60;;;;;;5995947;22;45098;-60
2023/10/26 16:05:16;;;;;;;1.60;0.88;;;19.50;85.70;;;;;;5966050;22;45331;-61
2023/10/26 16:07:55;;;;;;;1.27;0.70;;;19.50;85.70;;;;;;5984093;22;45155;-59